Fort Mojave, Arizona
Current Conditions -  °F | °C
As of 4:15 AM on Wednesday 26 Nov 2014 (Local Time) from KHII Reporting Station
Clear Clear  
Wind Chill: 50°   Ceiling: Unl
Heat Index: 50°   Visibility: 10mi
Dew Point: 14°   Wind: 0mph
Humidity: 24%   Direction: NA
Pressure: 30.3"   Gusts: NA
Location:  34.55°N, 114.35°W
Report Text: KHII 261115Z AUTO 00000KT 10SM CLR 10/M10 A3030 RMK AO2
Loading
Personal Weather Stations






























Interactive Weather Map New forecast layout! Learn more

10-Day Weather Forecast

Advertisements
Track Severe Weather on mobile